Startpagina
METAR-TAF:

METAR-TAF

Vliegvelden :

Anchorage, Alaska, Verenigde Staten

Internationale luchthaven Ted Stevens Anchorage

breedte: 61-10-28N, lengte: 149-59-46W, hoogte: 44 m

Actueel weer

Dit bericht is 41 minuten geleden gemaakt, om 02:53 UTC
Wind 5 kt uit het westzuidwesten
Temperatuur 13°C
Vochtigheid 72%
Druk 1030 hPa
Zicht: 16.1 km
Weinig wolken op 1100 ft
Verspreide wolken op 2500 ft
Geheel bewolkt op 5500 ft

METAR: PANC 230253Z 25005KT 10SM FEW011 SCT025 OVC055 13/08 A3041 RMK AO2 SLP299 T01330078 56005

Tijdstip: 19:34 (03:34 UTC)

Verwachting

Dit bericht is 2 uur en het 31 minuten geleden gemaakt, om 01:03 UTC
Verwachting geldig van 23 om 01 UTC tot 24 om 06 UTC
Wind 7 kt uit het westen
Zicht: 10 km
Verspreide wolken op 3000 ft
Geheel bewolkt op 6000 ft

TAF: PANC 230103Z 2301/2406 28007KT P6SM SCT030 OVC060

Waarnemingen en weersverwachtingen van meer dan 4000 vliegvelden (METAR en TAF).

De beschikbare stations zijn de gele en rode punten op de kaart.

Ga met uw muis naar het station om de naam te zien.

Klik dan om waarnemingen en weersverwachtingen te zien.

kaart wijzigen: klik op de groene knoppen met een zwart kruis om in te zoomen, op de groene knop met een streepje om uit te zoomen of op de groene pijlen voor aangrenzende kaarten.


METAR-TAF: